Calgary Springbank Airport
CYBW : now visible

Airfield :











YOU CAN JOIN US ON...

 
LOGIN :

Register | Disclaimer

   EN    FR    IT 

 









Legend :    VFR   Marginal VFR   IFR   Intensive IFR   Very Intensive IFR
Visi :
Ceiling :
>= 8 km
>= 3000ft
5 to 8 km
1000 to 3000 ft
1500m to 5 km
500 to 1000 ft
800 to 1500m
200 to 500 ft
< 800m
< 200 ft
Symbols :   Thunderstorms  Fog  Heavy snow  Heavy precipitations  Wind > 20 kt







- Airport Elevation : 3937 ft
- IATA code : YBW


CYBW - Calgary Springbank

CURRENT METAR :
  • 230000Z AUTO 11008KT 090V180 9SM OVC039 20/10 A2996 RMK SLP140 DENSITY ALT 5300FT

EXPIRED METARs :
  • 222300Z AUTO 15009KT 9SM FEW120 18/10 A2995 RMK SLP136 DENSITY ALT 5200FT
  • 222200Z AUTO 16007KT 120V180 9SM FEW039 19/10 A2994 RMK SLP128 DENSITY ALT 5300FT

TAF TAF CYBW
Valid from the 23 at 00:00 until the 23 at 04:00 UTC


222338Z 2300/2304 15009KT P6SM FEW040 SCT080
TEMPO 2300/2302 P6SM -SHRA VCTS BKN040CB OVC060
FM230200 09010KT P6SM SCT020 BKN040
TEMPO 2302/2304 P6SM -RA BKN020 RMK FCST BASED ON AUTO OBS. NXT FCST WILL BE ISSUED AT 231145Z
No reported NOTAMs for that airfield.



MET'MAP, your aeronautical weather chart ! - Copyright ORBIFLY December 2007 - Disclaimer

ORBIFLY MET'MAP TEAM :

Programming & Development : Alexandra Zaïnal
Concept & Development : Baudouin d'Aumeries
Co-Development & Prog : Marc-Olivier Méhu
Technical & hardware support : Manuel Goepfert

Contact : metmap@orbifly.com




SOURCES & CREDITS :

   NOAA       Earth
Advisory